sensor_id;sensor_type;location;lat;lon;timestamp;P1;durP1;ratioP1;P2;durP2;ratioP2
22336;SDS011;14992;50.844;4.418;2024-02-14T00:01:34;5.60;;;3.13;;
22336;SDS011;14992;50.844;4.418;2024-02-14T00:04:04;3.92;;;3.10;;
22336;SDS011;14992;50.844;4.418;2024-02-14T00:06:35;6.18;;;3.15;;
22336;SDS011;14992;50.844;4.418;2024-02-14T00:09:04;4.95;;;2.75;;
22336;SDS011;14992;50.844;4.418;2024-02-14T00:11:35;4.35;;;3.30;;
22336;SDS011;14992;50.844;4.418;2024-02-14T00:14:04;5.00;;;2.40;;
22336;SDS011;14992;50.844;4.418;2024-02-14T00:16:34;3.67;;;3.30;;
22336;SDS011;14992;50.844;4.418;2024-02-14T00:19:03;6.90;;;2.95;;
22336;SDS011;14992;50.844;4.418;2024-02-14T00:21:32;7.68;;;3.05;;
22336;SDS011;14992;50.844;4.418;2024-02-14T00:24:03;4.63;;;3.15;;
22336;SDS011;14992;50.844;4.418;2024-02-14T00:26:32;7.65;;;3.10;;
22336;SDS011;14992;50.844;4.418;2024-02-14T00:29:03;5.38;;;3.08;;
22336;SDS011;14992;50.844;4.418;2024-02-14T00:31:32;4.10;;;2.65;;
22336;SDS011;14992;50.844;4.418;2024-02-14T00:34:06;4.38;;;2.60;;
22336;SDS011;14992;50.844;4.418;2024-02-14T00:36:35;4.32;;;2.70;;
22336;SDS011;14992;50.844;4.418;2024-02-14T00:39:04;5.13;;;3.10;;
22336;SDS011;14992;50.844;4.418;2024-02-14T00:41:37;3.05;;;2.67;;
22336;SDS011;14992;50.844;4.418;2024-02-14T00:44:06;4.00;;;2.95;;
22336;SDS011;14992;50.844;4.418;2024-02-14T00:46:35;4.13;;;2.53;;
22336;SDS011;14992;50.844;4.418;2024-02-14T00:49:03;3.28;;;2.30;;
22336;SDS011;14992;50.844;4.418;2024-02-14T00:51:32;6.32;;;2.95;;
22336;SDS011;14992;50.844;4.418;2024-02-14T00:54:04;4.75;;;3.40;;
22336;SDS011;14992;50.844;4.418;2024-02-14T00:56:33;4.82;;;2.58;;
22336;SDS011;14992;50.844;4.418;2024-02-14T00:59:04;5.25;;;3.45;;
22336;SDS011;14992;50.844;4.418;2024-02-14T01:01:34;3.35;;;2.03;;
22336;SDS011;14992;50.844;4.418;2024-02-14T01:04:03;10.15;;;2.55;;
22336;SDS011;14992;50.844;4.418;2024-02-14T01:06:32;5.15;;;2.60;;
22336;SDS011;14992;50.844;4.418;2024-02-14T01:09:01;2.70;;;2.03;;
22336;SDS011;14992;50.844;4.418;2024-02-14T01:11:30;4.13;;;2.20;;
22336;SDS011;14992;50.844;4.418;2024-02-14T01:13:59;3.42;;;2.45;;
22336;SDS011;14992;50.844;4.418;2024-02-14T01:16:30;4.90;;;2.63;;
22336;SDS011;14992;50.844;4.418;2024-02-14T01:18:59;4.45;;;3.05;;
22336;SDS011;14992;50.844;4.418;2024-02-14T01:21:28;4.90;;;3.35;;
22336;SDS011;14992;50.844;4.418;2024-02-14T01:23:56;5.78;;;3.25;;
22336;SDS011;14992;50.844;4.418;2024-02-14T01:26:25;5.78;;;3.28;;
22336;SDS011;14992;50.844;4.418;2024-02-14T01:28:54;5.55;;;3.10;;
22336;SDS011;14992;50.844;4.418;2024-02-14T01:31:22;7.28;;;3.30;;
22336;SDS011;14992;50.844;4.418;2024-02-14T01:33:53;3.42;;;2.15;;
22336;SDS011;14992;50.844;4.418;2024-02-14T01:36:22;7.22;;;2.85;;
22336;SDS011;14992;50.844;4.418;2024-02-14T01:38:52;4.38;;;3.47;;
22336;SDS011;14992;50.844;4.418;2024-02-14T01:41:21;6.20;;;3.60;;
22336;SDS011;14992;50.844;4.418;2024-02-14T01:43:50;4.38;;;2.72;;
22336;SDS011;14992;50.844;4.418;2024-02-14T01:46:19;5.85;;;3.00;;
22336;SDS011;14992;50.844;4.418;2024-02-14T01:48:48;4.05;;;2.70;;
22336;SDS011;14992;50.844;4.418;2024-02-14T01:51:18;6.10;;;3.55;;
22336;SDS011;14992;50.844;4.418;2024-02-14T01:53:51;6.95;;;3.63;;
22336;SDS011;14992;50.844;4.418;2024-02-14T01:56:21;6.30;;;3.70;;
22336;SDS011;14992;50.844;4.418;2024-02-14T01:58:50;7.25;;;4.03;;
22336;SDS011;14992;50.844;4.418;2024-02-14T02:01:20;5.22;;;3.28;;
22336;SDS011;14992;50.844;4.418;2024-02-14T02:03:50;5.32;;;3.70;;
22336;SDS011;14992;50.844;4.418;2024-02-14T02:06:20;5.35;;;3.20;;
22336;SDS011;14992;50.844;4.418;2024-02-14T02:08:49;5.60;;;3.08;;
22336;SDS011;14992;50.844;4.418;2024-02-14T02:11:18;7.28;;;3.72;;
22336;SDS011;14992;50.844;4.418;2024-02-14T02:13:47;4.90;;;3.25;;
22336;SDS011;14992;50.844;4.418;2024-02-14T02:16:16;7.03;;;3.50;;
22336;SDS011;14992;50.844;4.418;2024-02-14T02:18:46;6.18;;;3.35;;
22336;SDS011;14992;50.844;4.418;2024-02-14T02:21:15;6.93;;;3.85;;
22336;SDS011;14992;50.844;4.418;2024-02-14T02:23:48;7.18;;;3.75;;
22336;SDS011;14992;50.844;4.418;2024-02-14T02:26:17;7.07;;;4.05;;
22336;SDS011;14992;50.844;4.418;2024-02-14T02:28:45;6.35;;;3.63;;
22336;SDS011;14992;50.844;4.418;2024-02-14T02:31:14;6.80;;;4.05;;
22336;SDS011;14992;50.844;4.418;2024-02-14T02:33:43;8.77;;;3.90;;
22336;SDS011;14992;50.844;4.418;2024-02-14T02:36:12;5.15;;;3.30;;
22336;SDS011;14992;50.844;4.418;2024-02-14T02:38:43;7.90;;;4.25;;
22336;SDS011;14992;50.844;4.418;2024-02-14T02:41:13;6.22;;;3.72;;
22336;SDS011;14992;50.844;4.418;2024-02-14T02:43:43;6.63;;;3.85;;
22336;SDS011;14992;50.844;4.418;2024-02-14T02:46:12;10.18;;;4.63;;
22336;SDS011;14992;50.844;4.418;2024-02-14T02:48:41;6.90;;;4.45;;
22336;SDS011;14992;50.844;4.418;2024-02-14T02:51:10;5.93;;;4.32;;
22336;SDS011;14992;50.844;4.418;2024-02-14T02:53:39;6.65;;;3.65;;
22336;SDS011;14992;50.844;4.418;2024-02-14T02:56:08;6.57;;;4.32;;
22336;SDS011;14992;50.844;4.418;2024-02-14T02:58:38;5.50;;;4.43;;
22336;SDS011;14992;50.844;4.418;2024-02-14T03:01:07;10.63;;;4.57;;
22336;SDS011;14992;50.844;4.418;2024-02-14T03:03:37;6.35;;;3.85;;
22336;SDS011;14992;50.844;4.418;2024-02-14T03:06:06;6.97;;;4.90;;
22336;SDS011;14992;50.844;4.418;2024-02-14T03:08:35;4.82;;;4.20;;
22336;SDS011;14992;50.844;4.418;2024-02-14T03:11:05;6.63;;;4.45;;
22336;SDS011;14992;50.844;4.418;2024-02-14T03:13:34;9.35;;;4.72;;
22336;SDS011;14992;50.844;4.418;2024-02-14T03:16:07;11.45;;;4.88;;
22336;SDS011;14992;50.844;4.418;2024-02-14T03:18:38;7.97;;;5.03;;
22336;SDS011;14992;50.844;4.418;2024-02-14T03:21:07;6.63;;;4.53;;
22336;SDS011;14992;50.844;4.418;2024-02-14T03:23:36;7.80;;;4.85;;
22336;SDS011;14992;50.844;4.418;2024-02-14T03:26:07;5.78;;;3.50;;
22336;SDS011;14992;50.844;4.418;2024-02-14T03:28:36;8.57;;;4.70;;
22336;SDS011;14992;50.844;4.418;2024-02-14T03:31:04;8.57;;;4.90;;
22336;SDS011;14992;50.844;4.418;2024-02-14T03:33:35;7.13;;;4.40;;
22336;SDS011;14992;50.844;4.418;2024-02-14T03:36:04;7.35;;;4.75;;
22336;SDS011;14992;50.844;4.418;2024-02-14T03:38:33;8.95;;;4.93;;
22336;SDS011;14992;50.844;4.418;2024-02-14T03:41:02;5.85;;;3.92;;
22336;SDS011;14992;50.844;4.418;2024-02-14T03:43:31;8.18;;;5.35;;
22336;SDS011;14992;50.844;4.418;2024-02-14T03:46:00;8.98;;;4.82;;
22336;SDS011;14992;50.844;4.418;2024-02-14T03:48:29;8.07;;;5.60;;
22336;SDS011;14992;50.844;4.418;2024-02-14T03:50:59;7.80;;;5.32;;
22336;SDS011;14992;50.844;4.418;2024-02-14T03:53:29;9.27;;;4.38;;
22336;SDS011;14992;50.844;4.418;2024-02-14T03:55:58;7.32;;;5.03;;
22336;SDS011;14992;50.844;4.418;2024-02-14T03:58:27;8.43;;;5.28;;
22336;SDS011;14992;50.844;4.418;2024-02-14T04:00:56;8.23;;;4.85;;
22336;SDS011;14992;50.844;4.418;2024-02-14T04:03:25;9.77;;;5.20;;
22336;SDS011;14992;50.844;4.418;2024-02-14T04:05:56;8.68;;;4.57;;
22336;SDS011;14992;50.844;4.418;2024-02-14T04:08:26;10.88;;;5.00;;
22336;SDS011;14992;50.844;4.418;2024-02-14T04:10:56;11.05;;;5.72;;
22336;SDS011;14992;50.844;4.418;2024-02-14T04:13:26;7.45;;;4.53;;
22336;SDS011;14992;50.844;4.418;2024-02-14T04:15:55;9.55;;;5.45;;
22336;SDS011;14992;50.844;4.418;2024-02-14T04:18:24;10.02;;;5.38;;
22336;SDS011;14992;50.844;4.418;2024-02-14T04:20:53;9.40;;;5.43;;
22336;SDS011;14992;50.844;4.418;2024-02-14T04:23:22;9.57;;;5.63;;
22336;SDS011;14992;50.844;4.418;2024-02-14T04:25:53;11.35;;;5.28;;
22336;SDS011;14992;50.844;4.418;2024-02-14T04:28:22;8.68;;;5.70;;
22336;SDS011;14992;50.844;4.418;2024-02-14T04:30:51;10.25;;;5.35;;
22336;SDS011;14992;50.844;4.418;2024-02-14T04:33:22;12.32;;;6.40;;
22336;SDS011;14992;50.844;4.418;2024-02-14T04:35:52;14.10;;;6.80;;
22336;SDS011;14992;50.844;4.418;2024-02-14T04:38:22;11.63;;;6.45;;
22336;SDS011;14992;50.844;4.418;2024-02-14T04:40:51;11.02;;;5.95;;
22336;SDS011;14992;50.844;4.418;2024-02-14T04:43:21;10.50;;;6.10;;
22336;SDS011;14992;50.844;4.418;2024-02-14T04:45:50;8.85;;;5.68;;
22336;SDS011;14992;50.844;4.418;2024-02-14T04:48:19;10.88;;;6.03;;
22336;SDS011;14992;50.844;4.418;2024-02-14T04:50:49;10.35;;;6.28;;
22336;SDS011;14992;50.844;4.418;2024-02-14T04:53:18;11.93;;;6.25;;
22336;SDS011;14992;50.844;4.418;2024-02-14T04:55:47;9.60;;;6.72;;
22336;SDS011;14992;50.844;4.418;2024-02-14T04:58:16;9.20;;;5.80;;
22336;SDS011;14992;50.844;4.418;2024-02-14T05:00:46;7.53;;;5.97;;
22336;SDS011;14992;50.844;4.418;2024-02-14T05:03:15;15.02;;;6.05;;
22336;SDS011;14992;50.844;4.418;2024-02-14T05:05:45;9.90;;;6.38;;
22336;SDS011;14992;50.844;4.418;2024-02-14T05:08:14;7.88;;;5.15;;
22336;SDS011;14992;50.844;4.418;2024-02-14T05:10:43;9.10;;;5.90;;
22336;SDS011;14992;50.844;4.418;2024-02-14T05:13:12;11.65;;;5.95;;
22336;SDS011;14992;50.844;4.418;2024-02-14T05:15:42;10.00;;;6.57;;
22336;SDS011;14992;50.844;4.418;2024-02-14T05:18:13;9.60;;;5.80;;
22336;SDS011;14992;50.844;4.418;2024-02-14T05:20:43;9.23;;;5.93;;
22336;SDS011;14992;50.844;4.418;2024-02-14T05:23:12;15.60;;;7.95;;
22336;SDS011;14992;50.844;4.418;2024-02-14T05:25:41;11.18;;;5.70;;
22336;SDS011;14992;50.844;4.418;2024-02-14T05:28:10;12.20;;;6.22;;
22336;SDS011;14992;50.844;4.418;2024-02-14T05:30:40;10.13;;;6.18;;
22336;SDS011;14992;50.844;4.418;2024-02-14T05:33:10;11.25;;;6.32;;
22336;SDS011;14992;50.844;4.418;2024-02-14T05:35:40;12.85;;;5.95;;
22336;SDS011;14992;50.844;4.418;2024-02-14T05:38:09;10.35;;;5.53;;
22336;SDS011;14992;50.844;4.418;2024-02-14T05:40:38;12.82;;;6.45;;
22336;SDS011;14992;50.844;4.418;2024-02-14T05:43:10;9.50;;;6.05;;
22336;SDS011;14992;50.844;4.418;2024-02-14T05:45:38;14.32;;;6.55;;
22336;SDS011;14992;50.844;4.418;2024-02-14T05:48:07;12.90;;;6.43;;
22336;SDS011;14992;50.844;4.418;2024-02-14T05:50:36;9.93;;;6.25;;
22336;SDS011;14992;50.844;4.418;2024-02-14T05:53:07;11.15;;;6.53;;
22336;SDS011;14992;50.844;4.418;2024-02-14T05:55:36;12.20;;;7.05;;
22336;SDS011;14992;50.844;4.418;2024-02-14T05:58:05;14.70;;;6.93;;
22336;SDS011;14992;50.844;4.418;2024-02-14T06:00:34;14.05;;;6.75;;
22336;SDS011;14992;50.844;4.418;2024-02-14T06:03:04;11.20;;;6.40;;
22336;SDS011;14992;50.844;4.418;2024-02-14T06:05:34;12.68;;;6.75;;
22336;SDS011;14992;50.844;4.418;2024-02-14T06:08:03;11.30;;;5.57;;
22336;SDS011;14992;50.844;4.418;2024-02-14T06:10:34;9.68;;;5.72;;
22336;SDS011;14992;50.844;4.418;2024-02-14T06:13:05;9.07;;;5.30;;
22336;SDS011;14992;50.844;4.418;2024-02-14T06:15:35;10.90;;;5.25;;
22336;SDS011;14992;50.844;4.418;2024-02-14T06:18:04;13.30;;;7.13;;
22336;SDS011;14992;50.844;4.418;2024-02-14T06:20:33;13.00;;;6.18;;
22336;SDS011;14992;50.844;4.418;2024-02-14T06:23:02;11.88;;;6.35;;
22336;SDS011;14992;50.844;4.418;2024-02-14T06:25:33;12.70;;;6.22;;
22336;SDS011;14992;50.844;4.418;2024-02-14T06:28:02;13.77;;;6.57;;
22336;SDS011;14992;50.844;4.418;2024-02-14T06:30:31;10.05;;;5.63;;
22336;SDS011;14992;50.844;4.418;2024-02-14T06:33:00;11.68;;;7.05;;
22336;SDS011;14992;50.844;4.418;2024-02-14T06:35:30;12.65;;;5.38;;
22336;SDS011;14992;50.844;4.418;2024-02-14T06:38:01;9.85;;;6.30;;
22336;SDS011;14992;50.844;4.418;2024-02-14T06:40:31;11.88;;;6.47;;
22336;SDS011;14992;50.844;4.418;2024-02-14T06:43:01;11.70;;;5.75;;
22336;SDS011;14992;50.844;4.418;2024-02-14T06:45:30;11.10;;;6.15;;
22336;SDS011;14992;50.844;4.418;2024-02-14T07:09:46;13.73;;;7.75;;
22336;SDS011;14992;50.844;4.418;2024-02-14T07:12:14;13.98;;;7.07;;
22336;SDS011;14992;50.844;4.418;2024-02-14T07:14:43;11.25;;;6.38;;
22336;SDS011;14992;50.844;4.418;2024-02-14T07:17:12;9.88;;;6.80;;
22336;SDS011;14992;50.844;4.418;2024-02-14T07:19:41;12.65;;;7.28;;
22336;SDS011;14992;50.844;4.418;2024-02-14T07:22:15;12.60;;;7.50;;
22336;SDS011;14992;50.844;4.418;2024-02-14T07:24:47;9.30;;;6.00;;
22336;SDS011;14992;50.844;4.418;2024-02-14T07:27:16;15.80;;;6.68;;
22336;SDS011;14992;50.844;4.418;2024-02-14T07:29:45;13.27;;;6.65;;
22336;SDS011;14992;50.844;4.418;2024-02-14T07:32:14;9.77;;;5.95;;
22336;SDS011;14992;50.844;4.418;2024-02-14T07:34:43;13.98;;;7.00;;
22336;SDS011;14992;50.844;4.418;2024-02-14T07:37:13;11.38;;;6.95;;
22336;SDS011;14992;50.844;4.418;2024-02-14T07:39:45;14.63;;;6.50;;
22336;SDS011;14992;50.844;4.418;2024-02-14T07:42:16;14.10;;;6.20;;
22336;SDS011;14992;50.844;4.418;2024-02-14T07:44:45;12.68;;;7.25;;
22336;SDS011;14992;50.844;4.418;2024-02-14T07:47:14;13.38;;;6.38;;
22336;SDS011;14992;50.844;4.418;2024-02-14T07:49:42;14.10;;;6.30;;
22336;SDS011;14992;50.844;4.418;2024-02-14T07:52:11;17.13;;;7.45;;
22336;SDS011;14992;50.844;4.418;2024-02-14T07:54:40;15.00;;;8.10;;
22336;SDS011;14992;50.844;4.418;2024-02-14T07:57:09;9.50;;;6.10;;
22336;SDS011;14992;50.844;4.418;2024-02-14T07:59:39;13.90;;;6.65;;
22336;SDS011;14992;50.844;4.418;2024-02-14T08:02:08;8.77;;;5.68;;
22336;SDS011;14992;50.844;4.418;2024-02-14T08:04:37;14.70;;;6.43;;
22336;SDS011;14992;50.844;4.418;2024-02-14T08:07:06;12.75;;;5.65;;
22336;SDS011;14992;50.844;4.418;2024-02-14T08:09:35;12.60;;;6.47;;
22336;SDS011;14992;50.844;4.418;2024-02-14T08:12:06;8.18;;;5.72;;
22336;SDS011;14992;50.844;4.418;2024-02-14T08:14:35;13.20;;;6.50;;
22336;SDS011;14992;50.844;4.418;2024-02-14T08:17:05;12.95;;;6.88;;
22336;SDS011;14992;50.844;4.418;2024-02-14T08:19:34;12.10;;;6.70;;
22336;SDS011;14992;50.844;4.418;2024-02-14T08:22:03;9.90;;;5.80;;
22336;SDS011;14992;50.844;4.418;2024-02-14T08:24:32;10.02;;;6.60;;
22336;SDS011;14992;50.844;4.418;2024-02-14T08:27:01;13.38;;;7.05;;
22336;SDS011;14992;50.844;4.418;2024-02-14T08:29:33;10.40;;;6.93;;
22336;SDS011;14992;50.844;4.418;2024-02-14T08:32:02;12.75;;;6.57;;
22336;SDS011;14992;50.844;4.418;2024-02-14T08:34:33;12.95;;;6.13;;
22336;SDS011;14992;50.844;4.418;2024-02-14T08:37:02;10.73;;;6.10;;
22336;SDS011;14992;50.844;4.418;2024-02-14T08:39:31;12.65;;;7.13;;
22336;SDS011;14992;50.844;4.418;2024-02-14T08:42:00;12.60;;;5.65;;
22336;SDS011;14992;50.844;4.418;2024-02-14T08:44:35;10.45;;;6.05;;
22336;SDS011;14992;50.844;4.418;2024-02-14T08:47:06;11.63;;;6.70;;
22336;SDS011;14992;50.844;4.418;2024-02-14T08:49:35;16.65;;;9.05;;
22336;SDS011;14992;50.844;4.418;2024-02-14T08:52:05;12.82;;;6.80;;
22336;SDS011;14992;50.844;4.418;2024-02-14T08:54:34;14.70;;;8.25;;
22336;SDS011;14992;50.844;4.418;2024-02-14T08:57:03;11.85;;;6.97;;
22336;SDS011;14992;50.844;4.418;2024-02-14T08:59:32;12.15;;;5.78;;
22336;SDS011;14992;50.844;4.418;2024-02-14T09:02:01;12.68;;;7.25;;
22336;SDS011;14992;50.844;4.418;2024-02-14T09:04:32;34.33;;;10.27;;
22336;SDS011;14992;50.844;4.418;2024-02-14T09:07:01;18.33;;;7.97;;
22336;SDS011;14992;50.844;4.418;2024-02-14T09:09:31;13.45;;;7.05;;
22336;SDS011;14992;50.844;4.418;2024-02-14T09:11:59;11.75;;;7.22;;
22336;SDS011;14992;50.844;4.418;2024-02-14T09:14:29;12.07;;;5.90;;
22336;SDS011;14992;50.844;4.418;2024-02-14T09:16:59;15.40;;;6.72;;
22336;SDS011;14992;50.844;4.418;2024-02-14T09:19:28;13.98;;;7.07;;
22336;SDS011;14992;50.844;4.418;2024-02-14T09:21:59;17.13;;;7.05;;
22336;SDS011;14992;50.844;4.418;2024-02-14T09:24:28;12.75;;;6.38;;
22336;SDS011;14992;50.844;4.418;2024-02-14T09:26:57;14.80;;;7.47;;
22336;SDS011;14992;50.844;4.418;2024-02-14T09:29:26;8.45;;;5.72;;
22336;SDS011;14992;50.844;4.418;2024-02-14T09:31:55;13.43;;;6.63;;
22336;SDS011;14992;50.844;4.418;2024-02-14T09:34:23;17.17;;;6.97;;
22336;SDS011;14992;50.844;4.418;2024-02-14T09:36:53;12.73;;;7.35;;
22336;SDS011;14992;50.844;4.418;2024-02-14T09:39:25;13.13;;;7.03;;
22336;SDS011;14992;50.844;4.418;2024-02-14T09:41:54;10.63;;;6.32;;
22336;SDS011;14992;50.844;4.418;2024-02-14T09:44:28;9.38;;;5.60;;
22336;SDS011;14992;50.844;4.418;2024-02-14T09:46:57;13.25;;;7.85;;
22336;SDS011;14992;50.844;4.418;2024-02-14T09:49:28;12.02;;;6.30;;
22336;SDS011;14992;50.844;4.418;2024-02-14T09:51:58;10.18;;;5.40;;
22336;SDS011;14992;50.844;4.418;2024-02-14T09:54:31;7.82;;;4.60;;
22336;SDS011;14992;50.844;4.418;2024-02-14T09:57:02;9.00;;;5.43;;
22336;SDS011;14992;50.844;4.418;2024-02-14T09:59:31;9.95;;;5.35;;
22336;SDS011;14992;50.844;4.418;2024-02-14T10:02:01;9.75;;;5.38;;
22336;SDS011;14992;50.844;4.418;2024-02-14T10:04:30;7.10;;;4.95;;
22336;SDS011;14992;50.844;4.418;2024-02-14T10:06:59;9.13;;;5.47;;
22336;SDS011;14992;50.844;4.418;2024-02-14T10:09:29;5.90;;;4.68;;
22336;SDS011;14992;50.844;4.418;2024-02-14T10:11:59;10.73;;;5.13;;
22336;SDS011;14992;50.844;4.418;2024-02-14T10:14:28;8.10;;;4.43;;
22336;SDS011;14992;50.844;4.418;2024-02-14T10:16:58;6.20;;;4.03;;
22336;SDS011;14992;50.844;4.418;2024-02-14T10:19:27;6.72;;;4.45;;
22336;SDS011;14992;50.844;4.418;2024-02-14T10:21:56;8.40;;;4.88;;
22336;SDS011;14992;50.844;4.418;2024-02-14T10:24:26;5.00;;;3.88;;
22336;SDS011;14992;50.844;4.418;2024-02-14T10:26:59;5.78;;;3.78;;
22336;SDS011;14992;50.844;4.418;2024-02-14T10:29:28;6.05;;;3.97;;
22336;SDS011;14992;50.844;4.418;2024-02-14T10:31:58;5.38;;;3.10;;
22336;SDS011;14992;50.844;4.418;2024-02-14T10:34:27;6.20;;;3.25;;
22336;SDS011;14992;50.844;4.418;2024-02-14T10:36:58;5.60;;;3.10;;
22336;SDS011;14992;50.844;4.418;2024-02-14T10:39:29;3.78;;;2.97;;
22336;SDS011;14992;50.844;4.418;2024-02-14T10:42:00;4.45;;;3.13;;
22336;SDS011;14992;50.844;4.418;2024-02-14T10:44:30;3.22;;;2.10;;
22336;SDS011;14992;50.844;4.418;2024-02-14T10:46:59;4.80;;;2.75;;
22336;SDS011;14992;50.844;4.418;2024-02-14T10:49:30;3.80;;;2.70;;
22336;SDS011;14992;50.844;4.418;2024-02-14T10:52:00;6.60;;;3.22;;
22336;SDS011;14992;50.844;4.418;2024-02-14T10:54:34;4.78;;;2.97;;
22336;SDS011;14992;50.844;4.418;2024-02-14T10:57:06;5.32;;;3.35;;
22336;SDS011;14992;50.844;4.418;2024-02-14T10:59:40;5.35;;;2.80;;
22336;SDS011;14992;50.844;4.418;2024-02-14T11:02:12;4.13;;;2.20;;
22336;SDS011;14992;50.844;4.418;2024-02-14T11:04:42;2.78;;;2.05;;
22336;SDS011;14992;50.844;4.418;2024-02-14T11:07:11;3.40;;;2.35;;
22336;SDS011;14992;50.844;4.418;2024-02-14T11:09:42;5.95;;;3.95;;
22336;SDS011;14992;50.844;4.418;2024-02-14T11:12:12;4.68;;;4.07;;
22336;SDS011;14992;50.844;4.418;2024-02-14T11:14:42;7.43;;;3.65;;
22336;SDS011;14992;50.844;4.418;2024-02-14T11:17:12;5.10;;;3.35;;
22336;SDS011;14992;50.844;4.418;2024-02-14T11:19:41;4.13;;;2.50;;
22336;SDS011;14992;50.844;4.418;2024-02-14T11:22:12;4.75;;;2.80;;
22336;SDS011;14992;50.844;4.418;2024-02-14T11:24:41;6.35;;;4.55;;
22336;SDS011;14992;50.844;4.418;2024-02-14T11:27:14;7.50;;;2.90;;
22336;SDS011;14992;50.844;4.418;2024-02-14T11:30:00;3.30;;;2.38;;
22336;SDS011;14992;50.844;4.418;2024-02-14T11:32:31;4.78;;;2.97;;
22336;SDS011;14992;50.844;4.418;2024-02-14T11:35:00;3.70;;;2.45;;
22336;SDS011;14992;50.844;4.418;2024-02-14T11:37:33;4.38;;;2.95;;
22336;SDS011;14992;50.844;4.418;2024-02-14T11:40:02;4.50;;;2.90;;
22336;SDS011;14992;50.844;4.418;2024-02-14T11:42:35;3.10;;;2.58;;
22336;SDS011;14992;50.844;4.418;2024-02-14T11:45:04;4.85;;;3.38;;
22336;SDS011;14992;50.844;4.418;2024-02-14T11:47:33;4.75;;;3.45;;
22336;SDS011;14992;50.844;4.418;2024-02-14T11:50:05;6.72;;;2.97;;
22336;SDS011;14992;50.844;4.418;2024-02-14T11:52:34;4.45;;;2.97;;
22336;SDS011;14992;50.844;4.418;2024-02-14T11:55:03;4.72;;;2.85;;
22336;SDS011;14992;50.844;4.418;2024-02-14T11:57:33;5.70;;;2.83;;
22336;SDS011;14992;50.844;4.418;2024-02-14T12:00:06;4.30;;;2.97;;
22336;SDS011;14992;50.844;4.418;2024-02-14T12:02:36;5.45;;;3.70;;
22336;SDS011;14992;50.844;4.418;2024-02-14T12:05:05;8.55;;;3.65;;
22336;SDS011;14992;50.844;4.418;2024-02-14T12:07:34;5.38;;;3.22;;
22336;SDS011;14992;50.844;4.418;2024-02-14T12:10:04;5.88;;;3.42;;
22336;SDS011;14992;50.844;4.418;2024-02-14T12:12:33;6.15;;;3.85;;
22336;SDS011;14992;50.844;4.418;2024-02-14T12:15:05;8.13;;;3.80;;
22336;SDS011;14992;50.844;4.418;2024-02-14T12:17:38;7.45;;;4.10;;
22336;SDS011;14992;50.844;4.418;2024-02-14T12:20:09;7.97;;;3.65;;
22336;SDS011;14992;50.844;4.418;2024-02-14T12:22:39;5.28;;;3.45;;
22336;SDS011;14992;50.844;4.418;2024-02-14T12:25:08;7.30;;;3.72;;
22336;SDS011;14992;50.844;4.418;2024-02-14T12:27:41;6.63;;;4.07;;
22336;SDS011;14992;50.844;4.418;2024-02-14T12:30:12;8.65;;;4.18;;
22336;SDS011;14992;50.844;4.418;2024-02-14T12:32:41;9.60;;;5.03;;
22336;SDS011;14992;50.844;4.418;2024-02-14T12:35:10;7.68;;;3.80;;
22336;SDS011;14992;50.844;4.418;2024-02-14T12:37:39;7.50;;;3.83;;
22336;SDS011;14992;50.844;4.418;2024-02-14T12:40:08;9.35;;;4.82;;
22336;SDS011;14992;50.844;4.418;2024-02-14T12:42:38;9.43;;;4.03;;
22336;SDS011;14992;50.844;4.418;2024-02-14T12:45:07;8.73;;;3.75;;
22336;SDS011;14992;50.844;4.418;2024-02-14T12:47:38;7.25;;;3.88;;
22336;SDS011;14992;50.844;4.418;2024-02-14T12:50:10;6.78;;;4.00;;
22336;SDS011;14992;50.844;4.418;2024-02-14T12:52:39;9.45;;;3.80;;
22336;SDS011;14992;50.844;4.418;2024-02-14T12:55:08;5.18;;;3.13;;
22336;SDS011;14992;50.844;4.418;2024-02-14T12:57:37;7.82;;;3.92;;
22336;SDS011;14992;50.844;4.418;2024-02-14T13:00:07;7.43;;;4.40;;
22336;SDS011;14992;50.844;4.418;2024-02-14T13:02:38;10.05;;;3.70;;
22336;SDS011;14992;50.844;4.418;2024-02-14T13:05:07;4.88;;;3.75;;
22336;SDS011;14992;50.844;4.418;2024-02-14T13:07:36;5.13;;;3.17;;
22336;SDS011;14992;50.844;4.418;2024-02-14T13:10:06;5.38;;;2.95;;
22336;SDS011;14992;50.844;4.418;2024-02-14T13:12:37;5.32;;;3.25;;
22336;SDS011;14992;50.844;4.418;2024-02-14T13:15:07;6.72;;;3.05;;
22336;SDS011;14992;50.844;4.418;2024-02-14T13:17:36;4.25;;;3.00;;
22336;SDS011;14992;50.844;4.418;2024-02-14T13:20:09;4.28;;;2.28;;
22336;SDS011;14992;50.844;4.418;2024-02-14T13:22:42;3.75;;;3.15;;
22336;SDS011;14992;50.844;4.418;2024-02-14T13:25:11;6.43;;;3.17;;
22336;SDS011;14992;50.844;4.418;2024-02-14T13:27:43;4.05;;;2.78;;
22336;SDS011;14992;50.844;4.418;2024-02-14T13:30:12;5.35;;;3.38;;
22336;SDS011;14992;50.844;4.418;2024-02-14T13:32:43;4.88;;;2.97;;
22336;SDS011;14992;50.844;4.418;2024-02-14T13:35:12;4.60;;;3.72;;
22336;SDS011;14992;50.844;4.418;2024-02-14T13:37:41;4.78;;;3.00;;
22336;SDS011;14992;50.844;4.418;2024-02-14T13:40:12;6.18;;;3.17;;
22336;SDS011;14992;50.844;4.418;2024-02-14T13:42:41;4.93;;;3.05;;
22336;SDS011;14992;50.844;4.418;2024-02-14T13:45:10;5.53;;;3.30;;
22336;SDS011;14992;50.844;4.418;2024-02-14T13:47:39;6.75;;;2.53;;
22336;SDS011;14992;50.844;4.418;2024-02-14T13:50:11;5.10;;;2.45;;
22336;SDS011;14992;50.844;4.418;2024-02-14T13:52:40;5.90;;;3.38;;
22336;SDS011;14992;50.844;4.418;2024-02-14T13:55:09;6.10;;;2.58;;
22336;SDS011;14992;50.844;4.418;2024-02-14T13:57:38;3.85;;;2.67;;
22336;SDS011;14992;50.844;4.418;2024-02-14T14:00:07;5.18;;;2.97;;
22336;SDS011;14992;50.844;4.418;2024-02-14T14:02:39;6.18;;;2.80;;
22336;SDS011;14992;50.844;4.418;2024-02-14T14:05:11;4.55;;;2.83;;
22336;SDS011;14992;50.844;4.418;2024-02-14T14:07:44;6.72;;;2.88;;
22336;SDS011;14992;50.844;4.418;2024-02-14T14:10:24;4.95;;;2.67;;
22336;SDS011;14992;50.844;4.418;2024-02-14T14:12:55;2.80;;;2.05;;
22336;SDS011;14992;50.844;4.418;2024-02-14T14:15:24;5.65;;;2.85;;
22336;SDS011;14992;50.844;4.418;2024-02-14T14:17:56;2.50;;;2.30;;
22336;SDS011;14992;50.844;4.418;2024-02-14T14:20:27;3.80;;;2.53;;
22336;SDS011;14992;50.844;4.418;2024-02-14T14:22:56;4.82;;;2.78;;
22336;SDS011;14992;50.844;4.418;2024-02-14T14:25:26;3.83;;;2.17;;
22336;SDS011;14992;50.844;4.418;2024-02-14T14:28:05;4.38;;;2.38;;
22336;SDS011;14992;50.844;4.418;2024-02-14T14:30:39;3.72;;;2.50;;
22336;SDS011;14992;50.844;4.418;2024-02-14T14:33:08;2.78;;;2.45;;
22336;SDS011;14992;50.844;4.418;2024-02-14T14:35:40;4.55;;;2.60;;
22336;SDS011;14992;50.844;4.418;2024-02-14T14:38:10;7.85;;;2.17;;
22336;SDS011;14992;50.844;4.418;2024-02-14T14:40:39;4.40;;;2.13;;
22336;SDS011;14992;50.844;4.418;2024-02-14T14:43:08;5.85;;;2.10;;
22336;SDS011;14992;50.844;4.418;2024-02-14T14:45:37;4.55;;;2.45;;
22336;SDS011;14992;50.844;4.418;2024-02-14T14:48:06;3.92;;;2.38;;
22336;SDS011;14992;50.844;4.418;2024-02-14T14:50:36;3.85;;;2.05;;
22336;SDS011;14992;50.844;4.418;2024-02-14T14:53:07;3.65;;;1.92;;
22336;SDS011;14992;50.844;4.418;2024-02-14T14:55:49;5.25;;;2.42;;
22336;SDS011;14992;50.844;4.418;2024-02-14T14:58:19;3.90;;;2.47;;
22336;SDS011;14992;50.844;4.418;2024-02-14T15:00:53;1.98;;;1.77;;
22336;SDS011;14992;50.844;4.418;2024-02-14T15:03:23;4.45;;;2.25;;
22336;SDS011;14992;50.844;4.418;2024-02-14T15:05:52;4.72;;;2.28;;
22336;SDS011;14992;50.844;4.418;2024-02-14T15:08:23;2.97;;;1.75;;
22336;SDS011;14992;50.844;4.418;2024-02-14T15:10:54;3.10;;;1.98;;
22336;SDS011;14992;50.844;4.418;2024-02-14T15:13:24;4.55;;;1.90;;
22336;SDS011;14992;50.844;4.418;2024-02-14T15:15:55;4.45;;;2.42;;
22336;SDS011;14992;50.844;4.418;2024-02-14T15:18:24;3.72;;;2.15;;
22336;SDS011;14992;50.844;4.418;2024-02-14T15:20:54;3.78;;;1.88;;